sensor_id;sensor_type;location;lat;lon;timestamp;P1;durP1;ratioP1;P2;durP2;ratioP2
8423;SDS011;4249;49.072;9.770;2022-07-12T00:01:21;3.47;;;2.67;;
8423;SDS011;4249;49.072;9.770;2022-07-12T00:04:08;2.33;;;2.13;;
8423;SDS011;4249;49.072;9.770;2022-07-12T00:06:55;2.30;;;2.10;;
8423;SDS011;4249;49.072;9.770;2022-07-12T00:09:43;2.57;;;2.37;;
8423;SDS011;4249;49.072;9.770;2022-07-12T00:12:31;2.10;;;1.90;;
8423;SDS011;4249;49.072;9.770;2022-07-12T00:15:19;2.63;;;2.15;;
8423;SDS011;4249;49.072;9.770;2022-07-12T00:18:06;2.40;;;2.20;;
8423;SDS011;4249;49.072;9.770;2022-07-12T00:20:53;2.23;;;2.13;;
8423;SDS011;4249;49.072;9.770;2022-07-12T00:23:40;2.15;;;1.95;;
8423;SDS011;4249;49.072;9.770;2022-07-12T00:26:28;2.03;;;1.93;;
8423;SDS011;4249;49.072;9.770;2022-07-12T00:29:16;1.80;;;1.70;;
8423;SDS011;4249;49.072;9.770;2022-07-12T00:32:03;1.80;;;1.70;;
8423;SDS011;4249;49.072;9.770;2022-07-12T00:34:53;1.87;;;1.70;;
8423;SDS011;4249;49.072;9.770;2022-07-12T00:37:40;2.00;;;1.90;;
8423;SDS011;4249;49.072;9.770;2022-07-12T00:40:27;3.00;;;2.33;;
8423;SDS011;4249;49.072;9.770;2022-07-12T00:43:15;2.30;;;2.10;;
8423;SDS011;4249;49.072;9.770;2022-07-12T00:46:04;2.93;;;2.17;;
8423;SDS011;4249;49.072;9.770;2022-07-12T00:48:51;2.63;;;2.43;;
8423;SDS011;4249;49.072;9.770;2022-07-12T00:51:39;2.27;;;2.07;;
8423;SDS011;4249;49.072;9.770;2022-07-12T00:54:27;2.17;;;2.03;;
8423;SDS011;4249;49.072;9.770;2022-07-12T00:57:15;2.03;;;1.90;;
8423;SDS011;4249;49.072;9.770;2022-07-12T01:00:04;2.30;;;2.10;;
8423;SDS011;4249;49.072;9.770;2022-07-12T01:02:56;2.67;;;2.20;;
8423;SDS011;4249;49.072;9.770;2022-07-12T01:05:44;2.60;;;2.30;;
8423;SDS011;4249;49.072;9.770;2022-07-12T01:08:32;2.57;;;2.37;;
8423;SDS011;4249;49.072;9.770;2022-07-12T01:11:20;2.50;;;1.93;;
8423;SDS011;4249;49.072;9.770;2022-07-12T01:14:08;2.37;;;2.17;;
8423;SDS011;4249;49.072;9.770;2022-07-12T01:16:55;2.40;;;2.20;;
8423;SDS011;4249;49.072;9.770;2022-07-12T01:19:45;2.10;;;2.00;;
8423;SDS011;4249;49.072;9.770;2022-07-12T01:22:34;2.27;;;1.80;;
8423;SDS011;4249;49.072;9.770;2022-07-12T01:25:24;2.23;;;2.03;;
8423;SDS011;4249;49.072;9.770;2022-07-12T01:28:11;2.00;;;1.80;;
8423;SDS011;4249;49.072;9.770;2022-07-12T01:30:59;2.20;;;2.00;;
8423;SDS011;4249;49.072;9.770;2022-07-12T01:33:46;2.20;;;2.00;;
8423;SDS011;4249;49.072;9.770;2022-07-12T01:36:33;2.13;;;1.90;;
8423;SDS011;4249;49.072;9.770;2022-07-12T01:39:22;1.90;;;1.80;;
8423;SDS011;4249;49.072;9.770;2022-07-12T01:42:10;3.80;;;1.93;;
8423;SDS011;4249;49.072;9.770;2022-07-12T01:44:57;2.40;;;2.20;;
8423;SDS011;4249;49.072;9.770;2022-07-12T01:47:45;2.15;;;1.83;;
8423;SDS011;4249;49.072;9.770;2022-07-12T01:50:34;2.40;;;2.20;;
8423;SDS011;4249;49.072;9.770;2022-07-12T01:53:22;2.13;;;2.00;;
8423;SDS011;4249;49.072;9.770;2022-07-12T01:56:09;4.03;;;2.20;;
8423;SDS011;4249;49.072;9.770;2022-07-12T01:58:58;1.83;;;1.73;;
8423;SDS011;4249;49.072;9.770;2022-07-12T02:01:46;2.10;;;1.90;;
8423;SDS011;4249;49.072;9.770;2022-07-12T02:04:34;3.13;;;2.53;;
8423;SDS011;4249;49.072;9.770;2022-07-12T02:07:23;2.67;;;2.47;;
8423;SDS011;4249;49.072;9.770;2022-07-12T02:10:11;3.87;;;2.93;;
8423;SDS011;4249;49.072;9.770;2022-07-12T02:12:58;2.93;;;2.63;;
8423;SDS011;4249;49.072;9.770;2022-07-12T02:15:50;3.23;;;2.93;;
8423;SDS011;4249;49.072;9.770;2022-07-12T02:18:38;3.73;;;2.87;;
8423;SDS011;4249;49.072;9.770;2022-07-12T02:21:25;3.57;;;3.00;;
8423;SDS011;4249;49.072;9.770;2022-07-12T02:24:12;4.53;;;3.00;;
8423;SDS011;4249;49.072;9.770;2022-07-12T02:26:59;3.77;;;2.80;;
8423;SDS011;4249;49.072;9.770;2022-07-12T02:29:47;4.97;;;3.07;;
8423;SDS011;4249;49.072;9.770;2022-07-12T02:32:35;3.37;;;2.57;;
8423;SDS011;4249;49.072;9.770;2022-07-12T02:35:23;2.70;;;2.47;;
8423;SDS011;4249;49.072;9.770;2022-07-12T02:38:10;2.77;;;2.57;;
8423;SDS011;4249;49.072;9.770;2022-07-12T02:40:58;2.33;;;2.13;;
8423;SDS011;4249;49.072;9.770;2022-07-12T02:43:45;2.67;;;2.47;;
8423;SDS011;4249;49.072;9.770;2022-07-12T02:46:32;2.80;;;2.50;;
8423;SDS011;4249;49.072;9.770;2022-07-12T02:49:22;2.63;;;2.30;;
8423;SDS011;4249;49.072;9.770;2022-07-12T02:52:09;4.20;;;2.70;;
8423;SDS011;4249;49.072;9.770;2022-07-12T02:54:56;3.23;;;2.80;;
8423;SDS011;4249;49.072;9.770;2022-07-12T02:57:43;2.90;;;2.70;;
8423;SDS011;4249;49.072;9.770;2022-07-12T03:00:31;3.63;;;2.53;;
8423;SDS011;4249;49.072;9.770;2022-07-12T03:03:18;2.60;;;2.40;;
8423;SDS011;4249;49.072;9.770;2022-07-12T03:06:06;2.70;;;2.50;;
8423;SDS011;4249;49.072;9.770;2022-07-12T03:08:54;3.50;;;2.10;;
8423;SDS011;4249;49.072;9.770;2022-07-12T03:11:41;2.40;;;2.20;;
8423;SDS011;4249;49.072;9.770;2022-07-12T03:14:28;2.60;;;2.40;;
8423;SDS011;4249;49.072;9.770;2022-07-12T03:17:15;2.60;;;2.40;;
8423;SDS011;4249;49.072;9.770;2022-07-12T03:20:03;2.70;;;2.50;;
8423;SDS011;4249;49.072;9.770;2022-07-12T03:22:53;2.73;;;2.53;;
8423;SDS011;4249;49.072;9.770;2022-07-12T03:25:41;2.67;;;2.40;;
8423;SDS011;4249;49.072;9.770;2022-07-12T03:28:28;3.13;;;2.30;;
8423;SDS011;4249;49.072;9.770;2022-07-12T03:31:15;2.80;;;2.47;;
8423;SDS011;4249;49.072;9.770;2022-07-12T03:34:02;2.60;;;2.40;;
8423;SDS011;4249;49.072;9.770;2022-07-12T03:36:49;3.33;;;2.90;;
8423;SDS011;4249;49.072;9.770;2022-07-12T03:39:38;3.27;;;2.97;;
8423;SDS011;4249;49.072;9.770;2022-07-12T03:42:25;3.00;;;2.80;;
8423;SDS011;4249;49.072;9.770;2022-07-12T03:45:13;3.57;;;2.70;;
8423;SDS011;4249;49.072;9.770;2022-07-12T03:48:00;3.00;;;2.77;;
8423;SDS011;4249;49.072;9.770;2022-07-12T03:50:48;3.03;;;2.50;;
8423;SDS011;4249;49.072;9.770;2022-07-12T03:53:35;2.60;;;2.40;;
8423;SDS011;4249;49.072;9.770;2022-07-12T03:56:24;2.30;;;2.10;;
8423;SDS011;4249;49.072;9.770;2022-07-12T03:59:29;2.77;;;2.57;;
8423;SDS011;4249;49.072;9.770;2022-07-12T04:02:16;2.63;;;2.43;;
8423;SDS011;4249;49.072;9.770;2022-07-12T04:05:05;2.47;;;2.27;;
8423;SDS011;4249;49.072;9.770;2022-07-12T04:07:53;2.70;;;2.50;;
8423;SDS011;4249;49.072;9.770;2022-07-12T04:10:40;3.27;;;2.57;;
8423;SDS011;4249;49.072;9.770;2022-07-12T04:13:29;2.67;;;2.47;;
8423;SDS011;4249;49.072;9.770;2022-07-12T04:16:17;2.63;;;2.43;;
8423;SDS011;4249;49.072;9.770;2022-07-12T04:19:05;3.63;;;2.30;;
8423;SDS011;4249;49.072;9.770;2022-07-12T04:21:54;2.50;;;2.30;;
8423;SDS011;4249;49.072;9.770;2022-07-12T04:24:41;2.83;;;2.60;;
8423;SDS011;4249;49.072;9.770;2022-07-12T04:27:28;2.50;;;2.30;;
8423;SDS011;4249;49.072;9.770;2022-07-12T04:30:18;2.70;;;2.50;;
8423;SDS011;4249;49.072;9.770;2022-07-12T04:33:05;3.40;;;2.97;;
8423;SDS011;4249;49.072;9.770;2022-07-12T04:35:53;3.00;;;2.80;;
8423;SDS011;4249;49.072;9.770;2022-07-12T04:38:40;2.93;;;2.73;;
8423;SDS011;4249;49.072;9.770;2022-07-12T04:41:28;3.20;;;2.87;;
8423;SDS011;4249;49.072;9.770;2022-07-12T04:44:15;3.57;;;3.27;;
8423;SDS011;4249;49.072;9.770;2022-07-12T04:47:03;3.87;;;3.20;;
8423;SDS011;4249;49.072;9.770;2022-07-12T04:49:51;4.40;;;3.30;;
8423;SDS011;4249;49.072;9.770;2022-07-12T04:52:38;3.13;;;2.50;;
8423;SDS011;4249;49.072;9.770;2022-07-12T04:55:25;4.07;;;3.37;;
8423;SDS011;4249;49.072;9.770;2022-07-12T04:58:12;3.27;;;2.97;;
8423;SDS011;4249;49.072;9.770;2022-07-12T05:01:00;4.50;;;3.20;;
8423;SDS011;4249;49.072;9.770;2022-07-12T05:03:48;3.00;;;2.70;;
8423;SDS011;4249;49.072;9.770;2022-07-12T05:06:15;3.13;;;2.80;;
8423;SDS011;4249;49.072;9.770;2022-07-12T05:08:42;3.10;;;2.80;;
8423;SDS011;4249;49.072;9.770;2022-07-12T05:11:09;3.30;;;3.00;;
8423;SDS011;4249;49.072;9.770;2022-07-12T05:13:36;3.47;;;3.10;;
8423;SDS011;4249;49.072;9.770;2022-07-12T05:16:03;3.00;;;2.70;;
8423;SDS011;4249;49.072;9.770;2022-07-12T05:18:32;2.80;;;2.60;;
8423;SDS011;4249;49.072;9.770;2022-07-12T05:21:01;3.20;;;2.73;;
8423;SDS011;4249;49.072;9.770;2022-07-12T05:23:28;3.03;;;2.83;;
8423;SDS011;4249;49.072;9.770;2022-07-12T05:25:55;3.22;;;2.92;;
8423;SDS011;4249;49.072;9.770;2022-07-12T05:28:23;3.40;;;3.10;;
8423;SDS011;4249;49.072;9.770;2022-07-12T05:30:50;4.93;;;2.90;;
8423;SDS011;4249;49.072;9.770;2022-07-12T05:33:16;3.43;;;3.13;;
8423;SDS011;4249;49.072;9.770;2022-07-12T05:35:44;3.93;;;3.23;;
8423;SDS011;4249;49.072;9.770;2022-07-12T05:38:12;3.60;;;3.13;;
8423;SDS011;4249;49.072;9.770;2022-07-12T05:40:39;3.57;;;2.70;;
8423;SDS011;4249;49.072;9.770;2022-07-12T05:43:06;3.37;;;3.07;;
8423;SDS011;4249;49.072;9.770;2022-07-12T05:45:33;3.67;;;3.23;;
8423;SDS011;4249;49.072;9.770;2022-07-12T05:48:00;3.70;;;2.87;;
8423;SDS011;4249;49.072;9.770;2022-07-12T05:50:26;3.83;;;3.43;;
8423;SDS011;4249;49.072;9.770;2022-07-12T05:52:53;3.53;;;2.97;;
8423;SDS011;4249;49.072;9.770;2022-07-12T05:55:40;4.03;;;3.05;;
8423;SDS011;4249;49.072;9.770;2022-07-12T05:58:07;5.72;;;3.53;;
8423;SDS011;4249;49.072;9.770;2022-07-12T06:00:35;3.63;;;2.88;;
8423;SDS011;4249;49.072;9.770;2022-07-12T06:03:02;3.53;;;2.47;;
8423;SDS011;4249;49.072;9.770;2022-07-12T06:05:31;4.15;;;2.30;;
8423;SDS011;4249;49.072;9.770;2022-07-12T06:07:57;4.93;;;2.50;;
8423;SDS011;4249;49.072;9.770;2022-07-12T06:10:24;2.33;;;2.13;;
8423;SDS011;4249;49.072;9.770;2022-07-12T06:12:53;4.13;;;2.55;;
8423;SDS011;4249;49.072;9.770;2022-07-12T06:15:22;2.85;;;2.20;;
8423;SDS011;4249;49.072;9.770;2022-07-12T06:17:50;4.07;;;2.00;;
8423;SDS011;4249;49.072;9.770;2022-07-12T06:20:18;4.32;;;1.98;;
8423;SDS011;4249;49.072;9.770;2022-07-12T06:22:45;3.20;;;2.30;;
8423;SDS011;4249;49.072;9.770;2022-07-12T06:25:12;2.97;;;2.10;;
8423;SDS011;4249;49.072;9.770;2022-07-12T06:27:39;3.63;;;2.15;;
8423;SDS011;4249;49.072;9.770;2022-07-12T06:30:08;1.95;;;1.85;;
8423;SDS011;4249;49.072;9.770;2022-07-12T06:32:35;3.97;;;2.25;;
8423;SDS011;4249;49.072;9.770;2022-07-12T06:35:02;2.92;;;2.25;;
8423;SDS011;4249;49.072;9.770;2022-07-12T06:37:30;2.75;;;1.98;;
8423;SDS011;4249;49.072;9.770;2022-07-12T06:39:57;5.95;;;2.00;;
8423;SDS011;4249;49.072;9.770;2022-07-12T06:42:24;4.00;;;1.90;;
8423;SDS011;4249;49.072;9.770;2022-07-12T06:44:51;3.75;;;1.80;;
8423;SDS011;4249;49.072;9.770;2022-07-12T06:47:19;2.65;;;1.90;;
8423;SDS011;4249;49.072;9.770;2022-07-12T06:49:46;2.20;;;1.83;;
8423;SDS011;4249;49.072;9.770;2022-07-12T06:52:13;1.70;;;1.60;;
8423;SDS011;4249;49.072;9.770;2022-07-12T06:54:40;1.70;;;1.60;;
8423;SDS011;4249;49.072;9.770;2022-07-12T06:57:07;1.63;;;1.27;;
8423;SDS011;4249;49.072;9.770;2022-07-12T06:59:35;1.52;;;1.42;;
8423;SDS011;4249;49.072;9.770;2022-07-12T07:02:02;2.03;;;1.33;;
8423;SDS011;4249;49.072;9.770;2022-07-12T07:04:30;1.50;;;1.40;;
8423;SDS011;4249;49.072;9.770;2022-07-12T07:06:57;0.70;;;0.70;;
8423;SDS011;4249;49.072;9.770;2022-07-12T07:09:24;2.08;;;1.20;;
8423;SDS011;4249;49.072;9.770;2022-07-12T07:11:51;1.85;;;1.08;;
8423;SDS011;4249;49.072;9.770;2022-07-12T07:14:18;2.25;;;1.17;;
8423;SDS011;4249;49.072;9.770;2022-07-12T07:16:45;3.10;;;1.30;;
8423;SDS011;4249;49.072;9.770;2022-07-12T07:19:12;2.47;;;1.42;;
8423;SDS011;4249;49.072;9.770;2022-07-12T07:21:40;1.25;;;1.00;;
8423;SDS011;4249;49.072;9.770;2022-07-12T07:24:07;2.13;;;1.02;;
8423;SDS011;4249;49.072;9.770;2022-07-12T07:26:34;1.27;;;0.68;;
8423;SDS011;4249;49.072;9.770;2022-07-12T07:29:01;0.90;;;0.90;;
8423;SDS011;4249;49.072;9.770;2022-07-12T07:31:46;1.92;;;0.77;;
8423;SDS011;4249;49.072;9.770;2022-07-12T07:34:14;0.63;;;0.63;;
8423;SDS011;4249;49.072;9.770;2022-07-12T07:36:42;0.68;;;0.68;;
8423;SDS011;4249;49.072;9.770;2022-07-12T07:39:09;1.00;;;0.80;;
8423;SDS011;4249;49.072;9.770;2022-07-12T07:41:37;0.60;;;0.60;;
8423;SDS011;4249;49.072;9.770;2022-07-12T07:44:04;1.50;;;0.70;;
8423;SDS011;4249;49.072;9.770;2022-07-12T07:46:31;0.80;;;0.80;;
8423;SDS011;4249;49.072;9.770;2022-07-12T07:48:58;0.77;;;0.77;;
8423;SDS011;4249;49.072;9.770;2022-07-12T07:51:25;0.90;;;0.80;;
8423;SDS011;4249;49.072;9.770;2022-07-12T07:53:53;0.82;;;0.60;;
8423;SDS011;4249;49.072;9.770;2022-07-12T07:56:20;0.85;;;0.60;;
8423;SDS011;4249;49.072;9.770;2022-07-12T07:58:47;0.50;;;0.50;;
8423;SDS011;4249;49.072;9.770;2022-07-12T08:01:16;1.20;;;0.80;;
8423;SDS011;4249;49.072;9.770;2022-07-12T08:03:43;0.60;;;0.60;;
8423;SDS011;4249;49.072;9.770;2022-07-12T08:06:11;0.60;;;0.60;;
8423;SDS011;4249;49.072;9.770;2022-07-12T08:08:38;0.70;;;0.70;;
8423;SDS011;4249;49.072;9.770;2022-07-12T08:11:06;0.52;;;0.52;;
8423;SDS011;4249;49.072;9.770;2022-07-12T08:13:36;0.52;;;0.52;;
8423;SDS011;4249;49.072;9.770;2022-07-12T08:16:03;2.53;;;0.70;;
8423;SDS011;4249;49.072;9.770;2022-07-12T08:18:30;0.60;;;0.60;;
8423;SDS011;4249;49.072;9.770;2022-07-12T08:20:57;0.45;;;0.45;;
8423;SDS011;4249;49.072;9.770;2022-07-12T08:23:24;0.50;;;0.50;;
8423;SDS011;4249;49.072;9.770;2022-07-12T08:25:51;0.90;;;0.90;;
8423;SDS011;4249;49.072;9.770;2022-07-12T08:28:19;0.73;;;0.65;;
8423;SDS011;4249;49.072;9.770;2022-07-12T08:30:46;2.05;;;0.93;;
8423;SDS011;4249;49.072;9.770;2022-07-12T08:33:13;0.47;;;0.47;;
8423;SDS011;4249;49.072;9.770;2022-07-12T08:35:41;0.85;;;0.85;;
8423;SDS011;4249;49.072;9.770;2022-07-12T08:38:09;0.60;;;0.60;;
8423;SDS011;4249;49.072;9.770;2022-07-12T08:40:36;0.75;;;0.75;;
8423;SDS011;4249;49.072;9.770;2022-07-12T08:43:03;0.60;;;0.60;;
8423;SDS011;4249;49.072;9.770;2022-07-12T08:45:31;0.95;;;0.88;;
8423;SDS011;4249;49.072;9.770;2022-07-12T08:47:58;1.17;;;0.68;;
8423;SDS011;4249;49.072;9.770;2022-07-12T08:50:25;0.57;;;0.57;;
8423;SDS011;4249;49.072;9.770;2022-07-12T08:52:53;1.48;;;0.70;;
8423;SDS011;4249;49.072;9.770;2022-07-12T08:55:22;0.70;;;0.70;;
8423;SDS011;4249;49.072;9.770;2022-07-12T08:57:52;0.60;;;0.60;;
8423;SDS011;4249;49.072;9.770;2022-07-12T09:00:20;0.60;;;0.60;;
8423;SDS011;4249;49.072;9.770;2022-07-12T09:02:50;0.73;;;0.73;;
8423;SDS011;4249;49.072;9.770;2022-07-12T09:05:18;0.47;;;0.47;;
8423;SDS011;4249;49.072;9.770;2022-07-12T09:07:46;1.00;;;0.90;;
8423;SDS011;4249;49.072;9.770;2022-07-12T09:10:14;1.70;;;0.80;;
8423;SDS011;4249;49.072;9.770;2022-07-12T09:12:42;1.08;;;0.98;;
8423;SDS011;4249;49.072;9.770;2022-07-12T09:15:10;0.60;;;0.60;;
8423;SDS011;4249;49.072;9.770;2022-07-12T09:17:46;0.82;;;0.82;;
8423;SDS011;4249;49.072;9.770;2022-07-12T09:20:23;2.75;;;0.70;;
8423;SDS011;4249;49.072;9.770;2022-07-12T09:22:54;0.80;;;0.80;;
8423;SDS011;4249;49.072;9.770;2022-07-12T09:25:22;0.80;;;0.80;;
8423;SDS011;4249;49.072;9.770;2022-07-12T09:27:50;0.70;;;0.60;;
8423;SDS011;4249;49.072;9.770;2022-07-12T09:30:19;0.77;;;0.77;;
8423;SDS011;4249;49.072;9.770;2022-07-12T09:33:04;0.85;;;0.85;;
8423;SDS011;4249;49.072;9.770;2022-07-12T09:35:59;1.08;;;0.70;;
8423;SDS011;4249;49.072;9.770;2022-07-12T09:38:33;0.73;;;0.73;;
8423;SDS011;4249;49.072;9.770;2022-07-12T09:41:00;0.70;;;0.70;;
8423;SDS011;4249;49.072;9.770;2022-07-12T09:43:28;0.95;;;0.70;;
8423;SDS011;4249;49.072;9.770;2022-07-12T09:45:55;0.70;;;0.70;;
8423;SDS011;4249;49.072;9.770;2022-07-12T09:48:23;0.60;;;0.60;;
8423;SDS011;4249;49.072;9.770;2022-07-12T09:50:54;0.60;;;0.60;;
8423;SDS011;4249;49.072;9.770;2022-07-12T09:53:25;0.80;;;0.80;;
8423;SDS011;4249;49.072;9.770;2022-07-12T09:55:56;0.80;;;0.80;;
8423;SDS011;4249;49.072;9.770;2022-07-12T09:58:30;0.60;;;0.60;;
8423;SDS011;4249;49.072;9.770;2022-07-12T10:00:58;0.80;;;0.80;;
8423;SDS011;4249;49.072;9.770;2022-07-12T10:03:28;0.80;;;0.80;;
8423;SDS011;4249;49.072;9.770;2022-07-12T10:05:57;0.75;;;0.75;;
8423;SDS011;4249;49.072;9.770;2022-07-12T10:08:27;0.57;;;0.57;;
8423;SDS011;4249;49.072;9.770;2022-07-12T10:10:55;1.75;;;0.50;;
8423;SDS011;4249;49.072;9.770;2022-07-12T10:13:22;0.63;;;0.63;;
8423;SDS011;4249;49.072;9.770;2022-07-12T10:15:49;0.82;;;0.82;;
8423;SDS011;4249;49.072;9.770;2022-07-12T10:18:23;1.65;;;0.73;;
8423;SDS011;4249;49.072;9.770;2022-07-12T10:20:52;0.65;;;0.65;;
8423;SDS011;4249;49.072;9.770;2022-07-12T10:23:34;0.70;;;0.70;;
8423;SDS011;4249;49.072;9.770;2022-07-12T10:28:59;0.47;;;0.47;;
8423;SDS011;4249;49.072;9.770;2022-07-12T10:31:28;0.85;;;0.85;;
8423;SDS011;4249;49.072;9.770;2022-07-12T10:37:09;0.73;;;0.73;;
8423;SDS011;4249;49.072;9.770;2022-07-12T10:39:37;1.13;;;1.00;;
8423;SDS011;4249;49.072;9.770;2022-07-12T10:42:17;0.90;;;0.90;;
8423;SDS011;4249;49.072;9.770;2022-07-12T10:44:45;0.63;;;0.63;;
8423;SDS011;4249;49.072;9.770;2022-07-12T10:47:14;0.60;;;0.60;;
8423;SDS011;4249;49.072;9.770;2022-07-12T10:49:46;1.30;;;0.70;;
8423;SDS011;4249;49.072;9.770;2022-07-12T10:52:16;1.00;;;0.80;;
8423;SDS011;4249;49.072;9.770;2022-07-12T10:57:43;0.85;;;0.85;;
8423;SDS011;4249;49.072;9.770;2022-07-12T11:00:12;0.70;;;0.70;;
8423;SDS011;4249;49.072;9.770;2022-07-12T11:02:40;0.73;;;0.70;;
8423;SDS011;4249;49.072;9.770;2022-07-12T11:05:08;1.35;;;0.93;;
8423;SDS011;4249;49.072;9.770;2022-07-12T11:07:37;1.77;;;1.20;;
8423;SDS011;4249;49.072;9.770;2022-07-12T11:10:05;0.70;;;0.70;;
8423;SDS011;4249;49.072;9.770;2022-07-12T11:12:33;0.68;;;0.68;;
8423;SDS011;4249;49.072;9.770;2022-07-12T11:15:00;0.75;;;0.75;;
8423;SDS011;4249;49.072;9.770;2022-07-12T11:17:27;1.02;;;0.90;;
8423;SDS011;4249;49.072;9.770;2022-07-12T11:22:42;1.20;;;0.90;;
8423;SDS011;4249;49.072;9.770;2022-07-12T11:25:09;0.70;;;0.70;;
8423;SDS011;4249;49.072;9.770;2022-07-12T11:27:37;0.77;;;0.77;;
8423;SDS011;4249;49.072;9.770;2022-07-12T11:30:06;0.63;;;0.63;;
8423;SDS011;4249;49.072;9.770;2022-07-12T11:32:37;0.75;;;0.75;;
8423;SDS011;4249;49.072;9.770;2022-07-12T11:35:16;1.00;;;1.00;;
8423;SDS011;4249;49.072;9.770;2022-07-12T11:37:52;1.70;;;0.80;;
8423;SDS011;4249;49.072;9.770;2022-07-12T11:40:21;0.60;;;0.60;;
8423;SDS011;4249;49.072;9.770;2022-07-12T11:42:55;0.80;;;0.80;;
8423;SDS011;4249;49.072;9.770;2022-07-12T11:45:24;0.77;;;0.77;;
8423;SDS011;4249;49.072;9.770;2022-07-12T11:47:52;1.05;;;0.90;;
8423;SDS011;4249;49.072;9.770;2022-07-12T11:50:19;0.63;;;0.63;;
8423;SDS011;4249;49.072;9.770;2022-07-12T11:52:46;1.75;;;1.13;;
8423;SDS011;4249;49.072;9.770;2022-07-12T11:55:15;0.80;;;0.80;;
8423;SDS011;4249;49.072;9.770;2022-07-12T11:57:42;0.57;;;0.55;;
8423;SDS011;4249;49.072;9.770;2022-07-12T12:00:13;1.88;;;0.80;;
8423;SDS011;4249;49.072;9.770;2022-07-12T12:02:41;1.23;;;0.82;;
8423;SDS011;4249;49.072;9.770;2022-07-12T12:05:09;1.08;;;1.00;;
8423;SDS011;4249;49.072;9.770;2022-07-12T12:07:36;1.50;;;1.02;;
8423;SDS011;4249;49.072;9.770;2022-07-12T12:10:04;0.90;;;0.80;;
8423;SDS011;4249;49.072;9.770;2022-07-12T12:12:37;1.20;;;0.73;;
8423;SDS011;4249;49.072;9.770;2022-07-12T12:15:07;0.50;;;0.50;;
8423;SDS011;4249;49.072;9.770;2022-07-12T12:17:35;0.75;;;0.75;;
8423;SDS011;4249;49.072;9.770;2022-07-12T12:20:08;0.43;;;0.43;;
8423;SDS011;4249;49.072;9.770;2022-07-12T12:22:36;0.85;;;0.68;;
8423;SDS011;4249;49.072;9.770;2022-07-12T12:25:04;2.78;;;0.88;;
8423;SDS011;4249;49.072;9.770;2022-07-12T12:27:41;0.85;;;0.85;;
8423;SDS011;4249;49.072;9.770;2022-07-12T12:30:09;0.63;;;0.63;;
8423;SDS011;4249;49.072;9.770;2022-07-12T12:32:46;0.85;;;0.80;;
8423;SDS011;4249;49.072;9.770;2022-07-12T12:35:15;2.45;;;0.77;;
8423;SDS011;4249;49.072;9.770;2022-07-12T12:37:49;2.17;;;0.60;;
8423;SDS011;4249;49.072;9.770;2022-07-12T12:40:18;0.57;;;0.57;;
8423;SDS011;4249;49.072;9.770;2022-07-12T12:42:47;0.80;;;0.80;;
8423;SDS011;4249;49.072;9.770;2022-07-12T12:45:17;0.70;;;0.70;;
8423;SDS011;4249;49.072;9.770;2022-07-12T12:47:52;0.93;;;0.80;;
8423;SDS011;4249;49.072;9.770;2022-07-12T12:50:39;0.50;;;0.50;;
8423;SDS011;4249;49.072;9.770;2022-07-12T12:53:09;0.88;;;0.88;;
8423;SDS011;4249;49.072;9.770;2022-07-12T12:55:39;0.70;;;0.70;;
8423;SDS011;4249;49.072;9.770;2022-07-12T12:58:07;0.85;;;0.85;;
8423;SDS011;4249;49.072;9.770;2022-07-12T13:00:35;1.52;;;0.98;;
8423;SDS011;4249;49.072;9.770;2022-07-12T13:03:16;2.30;;;0.88;;
8423;SDS011;4249;49.072;9.770;2022-07-12T13:05:44;1.35;;;1.02;;
8423;SDS011;4249;49.072;9.770;2022-07-12T13:08:12;0.80;;;0.80;;
8423;SDS011;4249;49.072;9.770;2022-07-12T13:10:40;2.38;;;0.80;;
8423;SDS011;4249;49.072;9.770;2022-07-12T13:13:10;2.22;;;0.85;;
8423;SDS011;4249;49.072;9.770;2022-07-12T13:15:37;1.10;;;0.75;;
8423;SDS011;4249;49.072;9.770;2022-07-12T13:18:04;2.05;;;0.93;;
8423;SDS011;4249;49.072;9.770;2022-07-12T13:20:32;1.48;;;0.95;;
8423;SDS011;4249;49.072;9.770;2022-07-12T13:22:59;0.70;;;0.70;;
8423;SDS011;4249;49.072;9.770;2022-07-12T13:25:26;0.68;;;0.68;;
8423;SDS011;4249;49.072;9.770;2022-07-12T13:27:56;0.80;;;0.75;;
8423;SDS011;4249;49.072;9.770;2022-07-12T13:30:24;0.90;;;0.90;;
8423;SDS011;4249;49.072;9.770;2022-07-12T13:32:51;1.08;;;0.90;;
8423;SDS011;4249;49.072;9.770;2022-07-12T13:35:18;0.85;;;0.80;;
8423;SDS011;4249;49.072;9.770;2022-07-12T13:37:45;1.33;;;1.23;;
8423;SDS011;4249;49.072;9.770;2022-07-12T13:40:12;0.95;;;0.90;;
8423;SDS011;4249;49.072;9.770;2022-07-12T13:42:48;0.70;;;0.70;;
8423;SDS011;4249;49.072;9.770;2022-07-12T13:45:17;0.80;;;0.80;;
8423;SDS011;4249;49.072;9.770;2022-07-12T13:47:48;1.08;;;0.98;;
8423;SDS011;4249;49.072;9.770;2022-07-12T13:50:16;2.15;;;1.02;;
8423;SDS011;4249;49.072;9.770;2022-07-12T13:52:44;1.95;;;1.05;;
8423;SDS011;4249;49.072;9.770;2022-07-12T13:55:13;1.65;;;0.77;;
8423;SDS011;4249;49.072;9.770;2022-07-12T13:57:41;1.55;;;0.68;;
8423;SDS011;4249;49.072;9.770;2022-07-12T14:00:10;1.00;;;1.00;;
8423;SDS011;4249;49.072;9.770;2022-07-12T14:02:38;1.45;;;0.73;;
8423;SDS011;4249;49.072;9.770;2022-07-12T14:05:09;0.90;;;0.75;;
8423;SDS011;4249;49.072;9.770;2022-07-12T14:07:37;1.10;;;0.80;;
8423;SDS011;4249;49.072;9.770;2022-07-12T14:10:05;1.70;;;0.82;;
8423;SDS011;4249;49.072;9.770;2022-07-12T14:12:33;0.88;;;0.88;;
8423;SDS011;4249;49.072;9.770;2022-07-12T14:15:00;1.33;;;0.93;;
8423;SDS011;4249;49.072;9.770;2022-07-12T14:17:44;0.80;;;0.80;;
8423;SDS011;4249;49.072;9.770;2022-07-12T14:20:16;0.80;;;0.80;;
8423;SDS011;4249;49.072;9.770;2022-07-12T14:22:44;2.50;;;1.00;;
8423;SDS011;4249;49.072;9.770;2022-07-12T14:25:11;0.80;;;0.80;;
8423;SDS011;4249;49.072;9.770;2022-07-12T14:27:38;0.82;;;0.82;;
8423;SDS011;4249;49.072;9.770;2022-07-12T14:30:07;0.98;;;0.98;;
8423;SDS011;4249;49.072;9.770;2022-07-12T14:32:35;0.80;;;0.80;;
8423;SDS011;4249;49.072;9.770;2022-07-12T14:35:02;1.25;;;1.10;;
8423;SDS011;4249;49.072;9.770;2022-07-12T14:37:32;2.38;;;0.90;;
8423;SDS011;4249;49.072;9.770;2022-07-12T14:39:59;0.88;;;0.88;;
8423;SDS011;4249;49.072;9.770;2022-07-12T14:42:26;0.90;;;0.90;;
8423;SDS011;4249;49.072;9.770;2022-07-12T14:44:53;1.02;;;1.02;;
8423;SDS011;4249;49.072;9.770;2022-07-12T14:47:19;1.15;;;0.90;;
8423;SDS011;4249;49.072;9.770;2022-07-12T14:49:46;1.45;;;0.70;;
8423;SDS011;4249;49.072;9.770;2022-07-12T14:52:14;1.50;;;1.05;;
8423;SDS011;4249;49.072;9.770;2022-07-12T14:54:42;3.88;;;1.10;;
8423;SDS011;4249;49.072;9.770;2022-07-12T14:57:10;0.98;;;0.85;;
8423;SDS011;4249;49.072;9.770;2022-07-12T14:59:37;2.95;;;0.70;;
8423;SDS011;4249;49.072;9.770;2022-07-12T15:02:04;2.65;;;0.90;;
8423;SDS011;4249;49.072;9.770;2022-07-12T15:04:31;1.20;;;1.10;;
8423;SDS011;4249;49.072;9.770;2022-07-12T15:06:58;0.90;;;0.90;;
8423;SDS011;4249;49.072;9.770;2022-07-12T15:09:25;0.93;;;0.93;;
8423;SDS011;4249;49.072;9.770;2022-07-12T15:11:53;0.80;;;0.80;;
8423;SDS011;4249;49.072;9.770;2022-07-12T15:14:21;1.38;;;1.00;;
8423;SDS011;4249;49.072;9.770;2022-07-12T15:16:48;3.70;;;1.10;;
8423;SDS011;4249;49.072;9.770;2022-07-12T15:19:15;0.82;;;0.82;;
8423;SDS011;4249;49.072;9.770;2022-07-12T15:21:41;0.80;;;0.80;;
8423;SDS011;4249;49.072;9.770;2022-07-12T15:24:08;1.15;;;0.95;;
8423;SDS011;4249;49.072;9.770;2022-07-12T15:26:35;0.90;;;0.90;;
8423;SDS011;4249;49.072;9.770;2022-07-12T15:29:04;1.08;;;1.05;;
8423;SDS011;4249;49.072;9.770;2022-07-12T15:31:31;1.00;;;1.00;;
8423;SDS011;4249;49.072;9.770;2022-07-12T15:33:58;0.75;;;0.75;;
8423;SDS011;4249;49.072;9.770;2022-07-12T15:36:26;0.98;;;0.95;;
8423;SDS011;4249;49.072;9.770;2022-07-12T15:38:53;2.30;;;0.90;;
8423;SDS011;4249;49.072;9.770;2022-07-12T15:41:19;4.57;;;3.33;;
8423;SDS011;4249;49.072;9.770;2022-07-12T15:43:46;2.40;;;1.05;;
8423;SDS011;4249;49.072;9.770;2022-07-12T15:46:15;3.50;;;1.00;;
8423;SDS011;4249;49.072;9.770;2022-07-12T15:48:42;0.82;;;0.82;;
8423;SDS011;4249;49.072;9.770;2022-07-12T15:51:09;0.70;;;0.70;;
8423;SDS011;4249;49.072;9.770;2022-07-12T15:53:36;1.27;;;1.20;;
8423;SDS011;4249;49.072;9.770;2022-07-12T15:56:04;2.00;;;1.23;;
8423;SDS011;4249;49.072;9.770;2022-07-12T15:58:34;2.10;;;1.20;;
8423;SDS011;4249;49.072;9.770;2022-07-12T16:01:02;0.95;;;0.90;;
8423;SDS011;4249;49.072;9.770;2022-07-12T16:03:31;1.48;;;1.10;;
8423;SDS011;4249;49.072;9.770;2022-07-12T16:05:58;1.13;;;1.00;;
8423;SDS011;4249;49.072;9.770;2022-07-12T16:08:27;1.30;;;1.00;;
8423;SDS011;4249;49.072;9.770;2022-07-12T16:10:54;1.00;;;1.00;;